Terminal Aerodrome Forecast
Issued by NWS

Home | Current Version | Previous Version | Text Only | Print | Product List | Glossary On
Versions: 1 2 3 4 5 6 7 8 9 10 11 12 13 14
000
FTUS43 KFGF 311100
TAFBJI
TAF
KBJI 311120Z 3112/0112 VRB03KT P6SM SKC
     FM311600 33008KT P6SM SCT050
     FM010100 VRB03KT P6SM SKC=

USA.gov is the U.S. government's official web portal to all federal, state and local government web resources and services.